Time;durP1;ratioP1;P1;durP2;ratioP2;P2;SDS_P1;SDS_P2;PMS_P1;PMS_P2;Temp;Humidity;BMP_temperature;BMP_pressure;BME280_temperature;BME280_humidity;BME280_pressure;Samples;Min_cycle;Max_cycle;Signal;HPM_P1;HPM_P2
2022/07/20 00:00:48;;;;;;;3.92;1.90;;;28.80;69.90;;;;;;4954889;28;20030;-77
2022/07/20 00:03:14;;;;;;;11.10;2.28;;;28.70;69.90;;;;;;4955135;28;20023;-77
2022/07/20 00:05:41;;;;;;;3.95;2.67;;;28.70;70.00;;;;;;4967172;28;20037;-77
2022/07/20 00:08:08;;;;;;;4.95;2.50;;;28.60;70.20;;;;;;4955107;28;20026;-78
2022/07/20 00:13:20;;;;;;;2.85;2.33;;;28.60;70.10;;;;;;4971925;28;20122;-77
2022/07/20 00:15:46;;;;;;;2.70;2.45;;;28.50;70.30;;;;;;4971606;28;20054;-77
2022/07/20 00:18:12;;;;;;;14.80;2.70;;;28.40;70.40;;;;;;4970064;28;20062;-77
2022/07/20 00:20:38;;;;;;;3.67;2.77;;;28.40;70.40;;;;;;4949500;28;20035;-77
2022/07/20 00:23:05;;;;;;;9.52;3.28;;;28.40;70.30;;;;;;4969856;28;20085;-77
2022/07/20 00:25:31;;;;;;;3.78;2.30;;;28.40;70.50;;;;;;4972553;28;20075;-77
2022/07/20 00:27:56;;;;;;;4.28;2.72;;;28.40;70.60;;;;;;4973661;28;20479;-77
2022/07/20 00:30:24;;;;;;;2.80;2.40;;;28.30;70.70;;;;;;4955354;28;20046;-77
2022/07/20 00:32:50;;;;;;;6.90;2.70;;;28.20;70.80;;;;;;4972466;28;20039;-77
2022/07/20 00:35:16;;;;;;;10.60;3.05;;;28.20;70.80;;;;;;4942424;28;20398;-78
2022/07/20 00:37:43;;;;;;;4.70;2.80;;;28.20;70.90;;;;;;4956698;28;20089;-77
2022/07/20 00:40:10;;;;;;;;;;;28.20;70.90;;;;;;4972543;28;20035;-77
2022/07/20 00:42:38;;;;;;;4.00;2.50;;;28.20;70.90;;;;;;4942669;28;19950;-77
2022/07/20 00:45:08;;;;;;;8.15;2.45;;;28.10;70.90;;;;;;4955637;28;20093;-77
2022/07/20 00:47:35;;;;;;;3.53;2.47;;;28.10;70.80;;;;;;4947287;28;20400;-77
2022/07/20 00:50:01;;;;;;;;;;;28.10;71.10;;;;;;4948712;29;20039;-78
2022/07/20 00:52:27;;;;;;;3.43;2.50;;;28.00;71.10;;;;;;4953025;28;20280;-77
2022/07/20 00:54:53;;;;;;;3.58;2.40;;;28.00;71.20;;;;;;4948947;29;20039;-77
2022/07/20 00:57:20;;;;;;;11.25;3.05;;;27.90;71.30;;;;;;4943266;28;20028;-78
2022/07/20 00:59:45;;;;;;;4.83;2.80;;;27.90;71.20;;;;;;4945279;28;20152;-79
2022/07/20 01:02:11;;;;;;;5.15;2.65;;;28.00;71.30;;;;;;4951391;28;20754;-78
2022/07/20 01:04:38;;;;;;;8.82;2.67;;;27.90;71.40;;;;;;4949682;28;20034;-78
2022/07/20 01:07:04;;;;;;;8.00;2.60;;;27.80;71.70;;;;;;4943768;29;20039;-78
2022/07/20 01:09:30;;;;;;;4.43;2.80;;;27.80;72.40;;;;;;4950738;28;20031;-78
2022/07/20 01:11:55;;;;;;;5.97;2.63;;;27.70;71.60;;;;;;4949557;28;20019;-79
2022/07/20 01:14:21;;;;;;;4.03;2.50;;;27.70;71.70;;;;;;4950490;28;20470;-78
2022/07/20 01:16:48;;;;;;;3.08;2.30;;;27.70;71.80;;;;;;4945980;29;20412;-79
2022/07/20 01:19:13;;;;;;;;;;;27.60;72.00;;;;;;4941330;29;20065;-78
2022/07/20 01:21:43;;;;;;;3.83;2.57;;;27.50;72.00;;;;;;4954822;28;19918;-78
2022/07/20 01:24:13;;;;;;;5.93;2.80;;;27.50;72.30;;;;;;4953045;28;20027;-78
2022/07/20 01:26:44;;;;;;;3.10;2.70;;;27.60;72.10;;;;;;4948511;28;20031;-77
2022/07/20 01:29:12;;;;;;;5.30;2.90;;;27.50;71.90;;;;;;4955162;29;20499;-77
2022/07/20 01:31:39;;;;;;;7.45;2.72;;;27.50;71.90;;;;;;4956010;29;20114;-78
2022/07/20 01:34:05;;;;;;;11.98;3.00;;;27.60;72.00;;;;;;4954732;28;20037;-78
2022/07/20 01:36:31;;;;;;;5.15;2.97;;;27.60;72.20;;;;;;4953181;29;20038;-76
2022/07/20 01:38:56;;;;;;;3.97;2.55;;;27.70;72.40;;;;;;4953664;28;20027;-79
2022/07/20 01:41:22;;;;;;;4.82;2.70;;;27.60;72.60;;;;;;4948335;28;20050;-78
2022/07/20 01:43:48;;;;;;;3.05;2.80;;;27.50;72.60;;;;;;4954778;29;20609;-79
2022/07/20 01:46:14;;;;;;;5.47;2.53;;;27.40;72.60;;;;;;4947076;28;20035;-77
2022/07/20 01:48:40;;;;;;;7.18;2.45;;;27.40;72.80;;;;;;4959917;28;20051;-78
2022/07/20 01:51:06;;;;;;;12.13;2.50;;;27.30;73.00;;;;;;4944021;28;20134;-78
2022/07/20 01:53:32;;;;;;;7.72;3.03;;;27.30;73.10;;;;;;4976059;28;20113;-78
2022/07/20 01:55:57;;;;;;;13.10;2.88;;;27.30;73.10;;;;;;4971851;28;20026;-77
2022/07/20 01:58:23;;;;;;;4.57;2.60;;;27.10;73.20;;;;;;4957566;28;20110;-78
2022/07/20 02:00:49;;;;;;;8.02;2.58;;;27.00;73.30;;;;;;4955752;28;20027;-78
2022/07/20 02:03:15;;;;;;;3.60;2.42;;;27.00;73.30;;;;;;4957979;28;20054;-77
2022/07/20 02:05:41;;;;;;;6.18;2.47;;;26.90;73.30;;;;;;4977340;28;20023;-79
2022/07/20 02:08:07;;;;;;;3.90;2.60;;;26.90;73.40;;;;;;4974570;28;20034;-78
2022/07/20 02:10:32;;;;;;;6.18;2.80;;;26.80;73.70;;;;;;4970698;28;20535;-78
2022/07/20 02:12:58;;;;;;;4.35;3.10;;;26.80;74.00;;;;;;4976201;28;20113;-78
2022/07/20 02:18:11;;;;;;;3.17;2.85;;;26.80;74.00;;;;;;4973244;28;20505;-78
2022/07/20 02:20:38;;;;;;;7.85;2.85;;;26.80;74.00;;;;;;4974582;28;20038;-78
2022/07/20 02:23:05;;;;;;;2.35;2.15;;;26.80;73.70;;;;;;4975560;28;20430;-79
2022/07/20 02:25:32;;;;;;;3.03;2.67;;;26.70;73.70;;;;;;4970093;28;20035;-76
2022/07/20 02:27:57;;;;;;;8.82;2.85;;;26.70;73.90;;;;;;4973765;28;20561;-80
2022/07/20 02:30:23;;;;;;;4.57;2.92;;;26.70;73.90;;;;;;4970973;28;20023;-77
2022/07/20 02:32:49;;;;;;;4.88;2.72;;;26.70;73.90;;;;;;4957035;28;20047;-79
2022/07/20 02:35:15;;;;;;;5.38;2.55;;;26.70;74.20;;;;;;4971742;28;20031;-79
2022/07/20 02:37:41;;;;;;;3.83;2.90;;;26.70;74.20;;;;;;4956271;28;20034;-80
2022/07/20 02:40:07;;;;;;;10.05;4.15;;;26.70;74.90;;;;;;4949112;28;20053;-78
2022/07/20 02:42:33;;;;;;;5.82;3.28;;;26.60;75.70;;;;;;4953918;28;20034;-78
2022/07/20 02:44:59;;;;;;;6.80;3.83;;;26.60;76.40;;;;;;4975903;28;20030;-79
2022/07/20 02:47:24;;;;;;;7.88;4.70;;;26.50;78.00;;;;;;4973323;28;20055;-78
2022/07/20 02:49:50;;;;;;;5.70;4.32;;;26.30;79.10;;;;;;4950569;28;20026;-79
2022/07/20 02:52:15;;;;;;;10.90;4.65;;;26.20;79.90;;;;;;4948392;28;20027;-79
2022/07/20 02:54:41;;;;;;;9.50;4.38;;;26.00;80.90;;;;;;4957755;28;20071;-78
2022/07/20 02:57:06;;;;;;;6.15;4.55;;;25.90;82.00;;;;;;4974482;28;20057;-78
2022/07/20 02:59:32;;;;;;;13.55;5.03;;;25.80;82.50;;;;;;4971943;28;20031;-79
2022/07/20 03:01:58;;;;;;;9.40;5.43;;;25.70;83.50;;;;;;4969019;28;21290;-78
2022/07/20 03:04:24;;;;;;;10.02;5.22;;;25.60;84.50;;;;;;4945697;28;20049;-79
2022/07/20 03:06:49;;;;;;;12.57;5.43;;;25.40;85.50;;;;;;4972373;28;20022;-79
2022/07/20 03:09:15;;;;;;;17.48;6.53;;;25.30;86.10;;;;;;4956812;28;20078;-80
2022/07/20 03:11:40;;;;;;;11.30;6.03;;;25.20;87.10;;;;;;4973653;28;20471;-79
2022/07/20 03:14:06;;;;;;;8.98;6.32;;;25.10;88.10;;;;;;4955362;28;20022;-80
2022/07/20 03:16:32;;;;;;;20.80;7.25;;;25.00;88.70;;;;;;4958185;28;20058;-79
2022/07/20 03:18:57;;;;;;;13.07;7.40;;;24.90;89.60;;;;;;4973821;28;20495;-79
2022/07/20 03:21:25;;;;;;;13.40;8.13;;;24.80;90.40;;;;;;4973453;28;20030;-80
2022/07/20 03:23:51;;;;;;;14.52;7.80;;;24.70;90.70;;;;;;4956450;28;20026;-79
2022/07/20 03:26:18;;;;;;;18.85;8.18;;;24.60;91.30;;;;;;4974601;28;20046;-80
2022/07/20 03:28:44;;;;;;;15.32;8.82;;;24.50;91.80;;;;;;4956191;28;20514;-79
2022/07/20 03:31:10;;;;;;;22.30;9.02;;;24.40;92.20;;;;;;4971257;28;20046;-81
2022/07/20 03:33:35;;;;;;;23.23;9.07;;;24.30;92.90;;;;;;4946501;28;20054;-78
2022/07/20 03:36:01;;;;;;;24.40;10.90;;;24.20;93.30;;;;;;4974069;28;20127;-79
2022/07/20 03:38:26;;;;;;;20.58;9.88;;;24.20;93.80;;;;;;4972538;28;20110;-80
2022/07/20 03:40:52;;;;;;;17.27;10.63;;;24.10;94.30;;;;;;4952982;28;20467;-79
2022/07/20 03:43:18;;;;;;;21.80;10.15;;;24.00;94.70;;;;;;4954092;28;20036;-80
2022/07/20 03:45:43;;;;;;;22.75;10.15;;;23.90;95.20;;;;;;4952674;28;20452;-79
2022/07/20 03:48:09;;;;;;;16.42;10.07;;;23.90;95.70;;;;;;4967759;28;20090;-79
2022/07/20 03:50:35;;;;;;;27.55;11.90;;;23.80;96.10;;;;;;4962428;28;20498;-79
2022/07/20 03:53:00;;;;;;;24.40;11.73;;;23.80;96.60;;;;;;4954593;28;20034;-78
2022/07/20 03:55:26;;;;;;;25.67;11.57;;;23.80;97.10;;;;;;4950719;28;20041;-79
2022/07/20 03:57:51;;;;;;;26.33;12.55;;;23.70;97.70;;;;;;4966699;28;20411;-78
2022/07/20 04:00:17;;;;;;;25.08;13.05;;;23.70;98.30;;;;;;4953095;28;20121;-79
2022/07/20 04:02:43;;;;;;;26.63;12.95;;;23.60;99.10;;;;;;4973661;28;20030;-79
2022/07/20 04:05:09;;;;;;;27.98;12.70;;;23.60;99.50;;;;;;4953346;28;20122;-79
2022/07/20 04:07:34;;;;;;;31.77;13.55;;;23.60;99.90;;;;;;4971430;28;20076;-79
2022/07/20 04:10:00;;;;;;;24.30;13.23;;;23.50;99.90;;;;;;4952655;28;20034;-78
2022/07/20 04:12:26;;;;;;;26.13;13.20;;;23.50;99.90;;;;;;4960417;28;20395;-79
2022/07/20 04:14:52;;;;;;;27.23;14.20;;;23.50;99.90;;;;;;4973641;28;20023;-80
2022/07/20 04:17:21;;;;;;;32.22;14.73;;;23.50;99.90;;;;;;4953337;28;20043;-79
2022/07/20 04:19:47;;;;;;;29.13;14.48;;;23.50;99.90;;;;;;4953829;28;20031;-78
2022/07/20 04:22:13;;;;;;;24.23;13.77;;;23.50;99.90;;;;;;4970802;28;20038;-79
2022/07/20 04:24:39;;;;;;;31.10;15.15;;;23.50;99.90;;;;;;4970488;28;20755;-77
2022/07/20 04:27:05;;;;;;;27.85;14.88;;;23.50;99.90;;;;;;4972872;28;20033;-78
2022/07/20 04:29:31;;;;;;;32.50;15.00;;;23.50;99.90;;;;;;4969445;28;20027;-78
2022/07/20 04:31:57;;;;;;;25.20;14.70;;;23.50;99.90;;;;;;4972421;28;20070;-80
2022/07/20 04:34:23;;;;;;;26.65;15.60;;;23.50;99.90;;;;;;4973392;28;20055;-79
2022/07/20 04:36:49;;;;;;;32.85;17.05;;;23.50;99.90;;;;;;4968829;28;20031;-79
2022/07/20 04:39:15;;;;;;;31.65;15.30;;;23.40;99.90;;;;;;4973023;28;20031;-77
2022/07/20 04:41:41;;;;;;;33.10;16.08;;;23.50;99.90;;;;;;4952868;28;20124;-79
2022/07/20 04:44:07;;;;;;;30.83;16.00;;;23.50;99.90;;;;;;4966508;28;20129;-80
2022/07/20 04:46:33;;;;;;;28.85;16.65;;;23.50;99.90;;;;;;4970215;28;20501;-79
2022/07/20 04:48:59;;;;;;;28.65;15.45;;;23.50;99.90;;;;;;4973176;28;20026;-78
2022/07/20 04:51:24;;;;;;;29.48;16.90;;;23.50;99.90;;;;;;4972411;28;20033;-77
2022/07/20 04:53:51;;;;;;;30.88;16.25;;;23.60;99.90;;;;;;4947434;28;20038;-77
2022/07/20 04:56:18;;;;;;;29.45;15.77;;;23.70;99.90;;;;;;4906349;29;20045;-77
2022/07/20 04:58:50;;;;;;;28.40;15.75;;;23.70;99.90;;;;;;4912863;29;20070;-78
2022/07/20 05:01:16;;;;;;;35.03;17.48;;;23.70;99.90;;;;;;4893431;29;20048;-77
2022/07/20 05:03:41;;;;;;;32.08;16.40;;;23.70;99.90;;;;;;4915479;29;20032;-79
2022/07/20 05:06:08;;;;;;;31.42;16.75;;;23.70;99.90;;;;;;4914442;29;20038;-77
2022/07/20 05:08:34;;;;;;;31.00;16.65;;;23.80;99.90;;;;;;4900733;29;20039;-78
2022/07/20 05:11:00;;;;;;;33.53;17.05;;;23.80;99.90;;;;;;4900966;29;20516;-79
2022/07/20 05:13:25;;;;;;;37.65;18.25;;;23.90;99.90;;;;;;4888394;29;20048;-78
2022/07/20 05:15:51;;;;;;;31.02;16.27;;;23.90;99.90;;;;;;4904368;29;20048;-78
2022/07/20 05:18:17;;;;;;;33.90;18.50;;;24.00;99.90;;;;;;4900611;29;20040;-77
2022/07/20 05:20:42;;;;;;;34.90;17.55;;;24.00;99.90;;;;;;4904104;29;20053;-78
2022/07/20 05:23:08;;;;;;;31.85;16.80;;;24.00;99.90;;;;;;4903384;29;20083;-77
2022/07/20 05:25:38;;;;;;;34.97;17.65;;;24.00;99.90;;;;;;4904622;29;20424;-76
2022/07/20 05:28:04;;;;;;;36.22;18.23;;;24.10;99.90;;;;;;4943586;28;20049;-76
2022/07/20 05:30:30;;;;;;;30.63;16.98;;;24.10;99.90;;;;;;4942018;28;20034;-78
2022/07/20 05:32:55;;;;;;;31.77;17.90;;;24.20;99.90;;;;;;4957083;28;20026;-78
2022/07/20 05:35:21;;;;;;;36.28;17.17;;;24.20;99.90;;;;;;4956456;28;20027;-78
2022/07/20 05:37:46;;;;;;;32.50;17.75;;;24.20;99.90;;;;;;4954560;28;20033;-78
2022/07/20 05:40:13;;;;;;;31.60;19.52;;;24.20;99.90;;;;;;4954889;28;20395;-78
2022/07/20 05:42:39;;;;;;;39.83;19.58;;;24.20;99.90;;;;;;4976029;28;20041;-79
2022/07/20 05:45:05;;;;;;;43.35;18.75;;;24.30;99.90;;;;;;4951776;28;20019;-78
2022/07/20 05:47:30;;;;;;;38.17;18.38;;;24.30;99.90;;;;;;4970339;28;20042;-78
2022/07/20 05:49:57;;;;;;;31.23;17.83;;;24.40;99.90;;;;;;4972604;28;20027;-79
2022/07/20 05:52:23;;;;;;;41.40;18.40;;;24.60;99.90;;;;;;4968474;28;20035;-80
2022/07/20 05:54:48;;;;;;;42.35;18.05;;;24.60;99.90;;;;;;4953558;28;20039;-80
2022/07/20 05:57:14;;;;;;;29.83;16.02;;;24.70;99.90;;;;;;4953987;28;20058;-79
2022/07/20 05:59:40;;;;;;;34.70;17.98;;;24.70;99.90;;;;;;4957158;28;20114;-79
2022/07/20 06:02:07;;;;;;;33.15;18.30;;;24.80;99.90;;;;;;4973910;28;20114;-79
2022/07/20 06:04:32;;;;;;;34.60;17.25;;;24.90;99.90;;;;;;4956988;28;20023;-79
2022/07/20 06:06:58;;;;;;;33.05;17.88;;;25.00;99.90;;;;;;4957909;28;20030;-79
2022/07/20 06:09:23;;;;;;;29.33;16.55;;;25.00;99.90;;;;;;4968602;28;20027;-79
2022/07/20 06:11:49;;;;;;;30.85;16.95;;;25.00;99.90;;;;;;4972590;28;20035;-79
2022/07/20 06:14:15;;;;;;;28.58;15.38;;;25.10;99.90;;;;;;4950158;28;20033;-79
2022/07/20 06:16:40;;;;;;;28.17;15.43;;;25.30;99.90;;;;;;4977248;28;20030;-79
2022/07/20 06:19:09;;;;;;;26.35;15.02;;;25.50;99.90;;;;;;4971739;28;20031;-79
2022/07/20 06:21:37;;;;;;;24.13;14.95;;;25.70;99.90;;;;;;4948082;28;20066;-79
2022/07/20 06:24:03;;;;;;;29.02;14.90;;;25.80;99.90;;;;;;4969980;28;20114;-79
2022/07/20 06:26:30;;;;;;;22.20;14.38;;;26.00;99.90;;;;;;4950710;28;20102;-78
2022/07/20 06:28:56;;;;;;;22.05;13.85;;;26.00;99.90;;;;;;4973007;28;20106;-78
2022/07/20 06:31:21;;;;;;;18.40;12.43;;;26.10;99.90;;;;;;4957339;28;20435;-79
2022/07/20 06:33:48;;;;;;;25.23;12.18;;;26.70;99.30;;;;;;4975573;28;20403;-80
2022/07/20 06:36:16;;;;;;;24.13;11.90;;;26.90;98.40;;;;;;4958723;28;20027;-77
2022/07/20 06:38:42;;;;;;;26.65;11.90;;;26.70;98.50;;;;;;4973941;28;20086;-78
2022/07/20 06:41:07;;;;;;;23.30;10.43;;;26.50;98.80;;;;;;4956900;28;20471;-77
2022/07/20 06:43:33;;;;;;;16.75;10.85;;;26.30;98.80;;;;;;4956462;28;20085;-79
2022/07/20 06:45:59;;;;;;;17.77;9.63;;;26.30;98.80;;;;;;4956929;28;20062;-81
2022/07/20 06:48:26;;;;;;;21.45;9.35;;;26.50;98.20;;;;;;4968484;28;20051;-80
2022/07/20 06:50:51;;;;;;;14.73;8.45;;;26.40;98.10;;;;;;4962156;28;20050;-79
2022/07/20 06:53:17;;;;;;;18.50;9.70;;;26.20;98.00;;;;;;4971070;28;20110;-79
2022/07/20 06:55:43;;;;;;;18.20;9.05;;;26.00;98.40;;;;;;4957230;29;20096;-80
2022/07/20 06:58:09;;;;;;;27.92;9.05;;;25.90;98.40;;;;;;4945463;28;20140;-79
2022/07/20 07:00:35;;;;;;;21.38;9.07;;;25.80;98.30;;;;;;4956580;28;20119;-78
2022/07/20 07:05:44;;;;;;;19.38;8.95;;;25.90;97.90;;;;;;4957616;28;20097;-79
2022/07/20 07:08:10;;;;;;;17.20;8.23;;;26.50;97.50;;;;;;4975281;28;20102;-78
2022/07/20 07:10:35;;;;;;;14.05;8.65;;;27.10;96.80;;;;;;4974505;28;20475;-80
2022/07/20 07:13:01;;;;;;;16.05;8.65;;;28.30;95.80;;;;;;4973338;28;20031;-79
2022/07/20 07:15:26;;;;;;;18.40;9.85;;;29.20;95.40;;;;;;4973348;28;20034;-77
2022/07/20 07:17:52;;;;;;;15.30;8.40;;;29.80;95.10;;;;;;4957305;28;20062;-80
2022/07/20 07:20:18;;;;;;;24.25;8.10;;;29.90;95.10;;;;;;4974331;28;20038;-78
2022/07/20 07:22:43;;;;;;;19.70;7.97;;;30.30;95.00;;;;;;4974698;28;20099;-78
2022/07/20 07:25:09;;;;;;;15.13;7.40;;;30.40;94.80;;;;;;4974678;28;20050;-80
2022/07/20 07:27:35;;;;;;;19.45;7.70;;;30.60;94.60;;;;;;4958426;28;20019;-79
2022/07/20 07:30:00;;;;;;;16.73;7.25;;;30.60;94.40;;;;;;4957373;28;20038;-80
2022/07/20 07:32:26;;;;;;;16.45;8.00;;;30.30;94.40;;;;;;4985162;28;20015;-79
2022/07/20 07:34:52;;;;;;;17.65;7.70;;;30.20;94.60;;;;;;4983693;28;20019;-78
2022/07/20 07:37:17;;;;;;;23.15;7.63;;;30.30;94.90;;;;;;4975343;28;20035;-78
2022/07/20 07:39:43;;;;;;;17.75;8.50;;;29.70;95.00;;;;;;4953351;28;20057;-80
2022/07/20 07:42:09;;;;;;;17.85;7.82;;;29.40;94.80;;;;;;4975537;28;20105;-78
2022/07/20 07:44:35;;;;;;;24.48;8.27;;;29.10;95.40;;;;;;4982020;28;20446;-79
2022/07/20 07:47:00;;;;;;;11.65;6.65;;;29.00;95.70;;;;;;4975189;28;20055;-81
2022/07/20 07:49:26;;;;;;;19.50;7.50;;;28.70;95.90;;;;;;4958823;28;20121;-80
2022/07/20 07:51:52;;;;;;;19.30;7.60;;;28.60;96.40;;;;;;4958199;28;20057;-79
2022/07/20 07:54:17;;;;;;;17.67;7.72;;;28.60;96.30;;;;;;4958450;28;20126;-78
2022/07/20 07:56:43;;;;;;;18.23;6.95;;;28.60;95.30;;;;;;4958586;28;20110;-79
2022/07/20 07:59:09;;;;;;;17.90;7.35;;;28.60;95.60;;;;;;4974762;28;20027;-78
2022/07/20 08:01:35;;;;;;;12.93;6.63;;;28.80;95.30;;;;;;4951680;28;20027;-79
2022/07/20 08:04:04;;;;;;;12.05;6.50;;;28.90;95.50;;;;;;4969973;28;20109;-80
2022/07/20 08:06:30;;;;;;;19.35;7.15;;;29.20;94.40;;;;;;4976256;28;20031;-81
2022/07/20 08:08:57;;;;;;;16.80;6.63;;;29.30;93.90;;;;;;4951877;28;20042;-79
2022/07/20 08:11:23;;;;;;;9.25;6.20;;;29.40;93.80;;;;;;4957146;28;20042;-79
2022/07/20 08:13:48;;;;;;;9.35;6.10;;;29.50;93.50;;;;;;4977513;28;20062;-77
2022/07/20 08:16:14;;;;;;;15.50;6.65;;;29.50;93.80;;;;;;4986238;28;20038;-77
2022/07/20 08:18:40;;;;;;;13.98;6.32;;;29.40;92.90;;;;;;4984608;28;20069;-77
2022/07/20 08:21:05;;;;;;;16.05;5.93;;;29.40;93.20;;;;;;4971505;28;20077;-77
2022/07/20 08:23:31;;;;;;;11.00;6.40;;;29.60;93.10;;;;;;4964541;28;20010;-78
2022/07/20 08:25:57;;;;;;;12.47;6.20;;;29.60;93.00;;;;;;4972721;28;20037;-77
2022/07/20 08:28:22;;;;;;;12.73;6.90;;;29.70;93.10;;;;;;4964853;28;20043;-77
2022/07/20 08:30:50;;;;;;;7.97;5.57;;;29.70;92.80;;;;;;4963787;28;20035;-79
2022/07/20 08:33:16;;;;;;;14.93;6.88;;;29.80;92.90;;;;;;4971387;28;20023;-78
2022/07/20 08:35:42;;;;;;;8.30;5.57;;;29.70;92.60;;;;;;4991282;28;20079;-78
2022/07/20 08:38:08;;;;;;;13.55;6.95;;;29.80;92.70;;;;;;4988977;28;20024;-77
2022/07/20 08:40:35;;;;;;;12.50;6.28;;;29.80;92.70;;;;;;4990225;28;20050;-78
2022/07/20 08:43:01;;;;;;;17.25;6.45;;;29.70;92.90;;;;;;4993495;28;20390;-79
2022/07/20 08:45:28;;;;;;;11.40;5.90;;;29.60;92.70;;;;;;4994658;28;20079;-79
2022/07/20 08:48:01;;;;;;;20.85;7.68;;;29.40;92.90;;;;;;4993733;28;20092;-76
2022/07/20 08:50:29;;;;;;;12.65;7.47;;;29.10;92.80;;;;;;4990808;28;20023;-78
2022/07/20 08:52:56;;;;;;;10.23;5.85;;;28.70;93.30;;;;;;4992238;28;20021;-77
2022/07/20 08:55:23;;;;;;;15.30;5.80;;;28.70;93.50;;;;;;4993294;28;20200;-77
2022/07/20 08:57:49;;;;;;;14.32;5.55;;;28.80;93.30;;;;;;4996417;28;20053;-77
2022/07/20 09:00:15;;;;;;;7.22;5.45;;;28.80;93.40;;;;;;4992178;28;20019;-78
2022/07/20 09:02:54;;;;;;;12.77;6.90;;;29.10;92.80;;;;;;4972544;28;20038;-79
2022/07/20 09:05:21;;;;;;;7.95;5.97;;;29.10;92.90;;;;;;4990208;28;20034;-79
2022/07/20 09:07:49;;;;;;;8.82;5.38;;;29.30;93.00;;;;;;4992719;28;20030;-78
2022/07/20 09:10:20;;;;;;;7.10;5.25;;;29.70;92.40;;;;;;4992332;28;20022;-78
2022/07/20 09:13:00;;;;;;;9.75;5.40;;;30.10;91.80;;;;;;4977087;28;20054;-80
2022/07/20 09:15:45;;;;;;;12.25;6.10;;;30.60;91.50;;;;;;4994219;28;20012;-79
2022/07/20 09:18:18;;;;;;;9.00;5.57;;;31.20;90.80;;;;;;4992224;28;20090;-79
2022/07/20 09:20:44;;;;;;;10.65;5.85;;;31.40;90.70;;;;;;4976109;28;20002;-78
2022/07/20 09:23:23;;;;;;;8.03;6.10;;;31.50;90.50;;;;;;4991958;28;20035;-79
2022/07/20 09:26:00;;;;;;;8.43;5.22;;;31.50;90.50;;;;;;4979533;28;20038;-77
2022/07/20 09:28:34;;;;;;;7.32;4.93;;;31.80;89.60;;;;;;4995475;28;20027;-77
2022/07/20 09:31:00;;;;;;;6.88;5.18;;;32.00;89.00;;;;;;4999512;28;20017;-80
2022/07/20 09:33:31;;;;;;;18.92;5.28;;;32.00;88.50;;;;;;4981160;28;20422;-78
2022/07/20 09:36:01;;;;;;;9.23;5.03;;;31.80;87.20;;;;;;4996572;28;20011;-79
2022/07/20 09:38:53;;;;;;;12.93;6.00;;;31.90;88.10;;;;;;4970790;28;20035;-78
2022/07/20 09:41:27;;;;;;;10.10;6.07;;;32.00;87.10;;;;;;4978220;28;20074;-77
2022/07/20 09:43:53;;;;;;;9.60;5.68;;;31.70;86.50;;;;;;4989094;28;20031;-77
2022/07/20 09:46:38;;;;;;;10.80;5.38;;;31.70;86.20;;;;;;4998428;28;20078;-77
2022/07/20 09:49:09;;;;;;;7.32;5.38;;;31.60;86.30;;;;;;4979412;29;20035;-78
2022/07/20 09:51:39;;;;;;;10.10;6.28;;;31.40;86.60;;;;;;4979955;29;20019;-78
2022/07/20 09:54:08;;;;;;;11.45;5.72;;;31.50;86.30;;;;;;4993078;28;20046;-76
2022/07/20 09:56:36;;;;;;;8.02;4.55;;;31.40;85.40;;;;;;4997170;28;20057;-79
2022/07/20 09:59:04;;;;;;;6.82;4.80;;;31.10;86.50;;;;;;4999747;28;20007;-79
2022/07/20 10:01:33;;;;;;;5.03;4.07;;;30.60;87.40;;;;;;4999808;28;20022;-79
2022/07/20 10:04:01;;;;;;;5.38;3.92;;;30.40;87.50;;;;;;5002018;28;20045;-80
2022/07/20 10:06:28;;;;;;;6.97;4.90;;;30.40;87.70;;;;;;5001799;28;20018;-79
2022/07/20 10:08:54;;;;;;;9.80;3.85;;;30.50;88.50;;;;;;4985702;28;20022;-81
2022/07/20 10:11:22;;;;;;;4.88;4.20;;;30.60;88.70;;;;;;5002073;28;20067;-80
2022/07/20 10:13:50;;;;;;;9.90;5.25;;;30.80;88.50;;;;;;4985820;28;20058;-80
2022/07/20 10:16:18;;;;;;;11.13;5.05;;;30.70;88.70;;;;;;4999587;28;20026;-80
2022/07/20 10:18:47;;;;;;;6.50;4.03;;;30.70;89.70;;;;;;5000384;28;20039;-78
2022/07/20 10:21:46;;;;;;;6.93;4.80;;;30.90;88.90;;;;;;5001197;28;20067;-81
2022/07/20 10:24:34;;;;;;;7.00;4.57;;;31.20;88.30;;;;;;4957026;28;20050;-80
2022/07/20 10:27:03;;;;;;;7.13;4.15;;;31.20;88.50;;;;;;4998746;28;20015;-80
2022/07/20 10:29:44;;;;;;;14.15;4.57;;;31.00;88.40;;;;;;4983791;28;20066;-80
2022/07/20 10:32:09;;;;;;;6.63;4.05;;;30.70;89.90;;;;;;4999374;28;20165;-79
2022/07/20 10:34:47;;;;;;;8.10;5.17;;;30.80;90.00;;;;;;4983867;28;20070;-79
2022/07/20 10:37:34;;;;;;;6.60;3.80;;;31.30;88.10;;;;;;5000782;28;20026;-81
2022/07/20 10:40:11;;;;;;;6.45;3.65;;;31.70;86.90;;;;;;4983101;28;20055;-78
2022/07/20 10:42:51;;;;;;;9.27;4.07;;;31.70;86.60;;;;;;4983213;28;20023;-80
2022/07/20 10:45:16;;;;;;;6.95;3.70;;;31.30;87.50;;;;;;4996686;28;20067;-80
2022/07/20 10:47:53;;;;;;;13.60;4.00;;;31.00;88.00;;;;;;4975198;28;20046;-79
2022/07/20 10:50:33;;;;;;;4.18;3.78;;;30.60;89.30;;;;;;4978587;28;20047;-78
2022/07/20 10:53:11;;;;;;;8.05;3.97;;;30.50;89.00;;;;;;4995463;28;20035;-79
2022/07/20 10:55:36;;;;;;;9.43;3.97;;;30.70;89.00;;;;;;4972913;28;20035;-78
2022/07/20 10:58:04;;;;;;;8.63;3.00;;;30.90;87.70;;;;;;4965596;28;20082;-79
2022/07/20 11:00:34;;;;;;;5.60;2.97;;;31.00;87.60;;;;;;4943642;29;20125;-81
2022/07/20 11:03:01;;;;;;;7.18;3.65;;;30.90;88.20;;;;;;4958378;28;20479;-81
2022/07/20 11:05:27;;;;;;;5.63;3.55;;;31.00;87.60;;;;;;4973940;28;20391;-79
2022/07/20 11:07:53;;;;;;;5.68;2.88;;;30.80;88.30;;;;;;4974456;28;20042;-80
2022/07/20 11:10:25;;;;;;;5.68;3.30;;;30.70;87.80;;;;;;4976416;28;20049;-80
2022/07/20 11:12:55;;;;;;;3.53;2.92;;;30.60;89.20;;;;;;4955580;28;20023;-80
2022/07/20 11:15:21;;;;;;;7.80;3.15;;;30.50;89.60;;;;;;4956947;28;20022;-81
2022/07/20 11:17:47;;;;;;;5.70;3.07;;;30.50;89.00;;;;;;4972582;28;20522;-81
2022/07/20 11:20:17;;;;;;;3.78;3.08;;;30.60;89.10;;;;;;4974283;28;20270;-80
2022/07/20 11:22:43;;;;;;;5.60;2.92;;;30.90;88.60;;;;;;4970536;28;20430;-79
2022/07/20 11:25:09;;;;;;;3.03;2.83;;;30.90;87.50;;;;;;4969313;28;20375;-80
2022/07/20 11:27:35;;;;;;;4.07;2.78;;;30.80;88.30;;;;;;4953963;28;20043;-79
2022/07/20 11:30:00;;;;;;;3.55;3.20;;;30.90;88.40;;;;;;4969495;28;20030;-80
2022/07/20 11:32:27;;;;;;;4.10;3.67;;;31.10;87.90;;;;;;4976148;28;20031;-80
2022/07/20 11:34:53;;;;;;;8.18;3.78;;;31.20;88.40;;;;;;4972054;28;20130;-80
2022/07/20 11:37:21;;;;;;;4.43;3.33;;;31.20;89.30;;;;;;4974509;28;20026;-79
2022/07/20 11:39:49;;;;;;;5.85;3.53;;;31.30;88.40;;;;;;4974300;28;20022;-79
2022/07/20 11:42:16;;;;;;;5.28;3.25;;;31.20;88.50;;;;;;4957439;28;20106;-80
2022/07/20 11:44:58;;;;;;;7.93;3.20;;;31.30;88.20;;;;;;4974131;28;20081;-80
2022/07/20 11:47:24;;;;;;;3.65;3.33;;;31.30;88.30;;;;;;4974658;28;20049;-79
2022/07/20 11:50:13;;;;;;;3.33;3.05;;;31.40;88.40;;;;;;4975893;28;20106;-79
2022/07/20 11:52:41;;;;;;;6.55;3.53;;;31.50;88.30;;;;;;4971669;28;20086;-80
2022/07/20 11:55:07;;;;;;;8.88;3.33;;;31.30;88.40;;;;;;4970810;28;20038;-81
2022/07/20 11:57:33;;;;;;;4.77;2.60;;;31.00;88.10;;;;;;4974336;28;20038;-81
2022/07/20 11:59:58;;;;;;;3.85;2.80;;;30.90;87.60;;;;;;4957089;28;20285;-81
2022/07/20 12:02:25;;;;;;;2.90;2.60;;;30.70;88.20;;;;;;4958801;28;20027;-80
2022/07/20 12:04:51;;;;;;;5.50;2.88;;;30.50;88.20;;;;;;4974008;28;20030;-80
2022/07/20 12:10:23;;;;;;;3.20;2.78;;;29.90;89.00;;;;;;4974777;28;20073;-79
2022/07/20 12:13:04;;;;;;;4.55;2.38;;;29.50;89.40;;;;;;4970052;28;20074;-81
2022/07/20 12:15:30;;;;;;;4.47;3.08;;;29.10;90.00;;;;;;4972938;28;20027;-80
2022/07/20 12:17:56;;;;;;;7.55;3.33;;;28.70;90.60;;;;;;4973741;28;20041;-82
2022/07/20 12:20:23;;;;;;;8.05;4.03;;;28.40;92.00;;;;;;4957056;28;20082;-80
2022/07/20 12:22:54;;;;;;;;;;;28.10;92.90;;;;;;4974309;28;20038;-81
2022/07/20 12:25:22;;;;;;;4.18;3.50;;;27.90;94.30;;;;;;4975446;28;19922;-81
2022/07/20 12:27:48;;;;;;;3.47;3.20;;;27.70;94.40;;;;;;4954368;29;20111;-81
2022/07/20 12:30:34;;;;;;;6.10;3.13;;;27.40;94.70;;;;;;4971517;28;20019;-80
2022/07/20 12:33:15;;;;;;;12.27;3.53;;;27.20;95.10;;;;;;4953160;28;20027;-81
2022/07/20 12:35:46;;;;;;;5.70;3.70;;;27.00;95.20;;;;;;4956062;28;20023;-80
2022/07/20 12:38:13;;;;;;;5.70;3.83;;;26.90;96.00;;;;;;4974847;28;20053;-80
2022/07/20 12:40:44;;;;;;;7.25;4.32;;;26.70;98.00;;;;;;4956082;28;20114;-81
2022/07/20 12:43:30;;;;;;;8.27;4.00;;;26.40;98.70;;;;;;4974293;28;20058;-81
2022/07/20 12:45:59;;;;;;;5.10;3.55;;;26.00;98.50;;;;;;4956767;28;20027;-82
2022/07/20 12:48:26;;;;;;;10.45;3.55;;;25.70;98.90;;;;;;4973808;28;20047;-81
2022/07/20 12:50:51;;;;;;;5.40;3.70;;;25.60;99.10;;;;;;4951836;28;20054;-80
2022/07/20 12:53:17;;;;;;;8.23;3.55;;;25.50;99.30;;;;;;4968106;28;20061;-80